sensor_id;sensor_type;location;lat;lon;timestamp;temperature;humidity
37232;DHT22;23125;48.156;15.954;2022-07-23T00:02:11;27.00;52.80
37232;DHT22;23125;48.156;15.954;2022-07-23T00:04:43;27.00;52.90
37232;DHT22;23125;48.156;15.954;2022-07-23T00:07:11;27.00;53.00
37232;DHT22;23125;48.156;15.954;2022-07-23T00:09:43;26.90;53.00
37232;DHT22;23125;48.156;15.954;2022-07-23T00:12:10;26.90;53.10
37232;DHT22;23125;48.156;15.954;2022-07-23T00:14:44;26.90;53.10
37232;DHT22;23125;48.156;15.954;2022-07-23T00:17:16;26.90;53.10
37232;DHT22;23125;48.156;15.954;2022-07-23T00:19:45;26.80;53.20
37232;DHT22;23125;48.156;15.954;2022-07-23T00:22:22;26.80;53.30
37232;DHT22;23125;48.156;15.954;2022-07-23T00:25:04;26.80;53.50
37232;DHT22;23125;48.156;15.954;2022-07-23T00:27:32;26.80;53.60
37232;DHT22;23125;48.156;15.954;2022-07-23T00:30:00;26.80;53.70
37232;DHT22;23125;48.156;15.954;2022-07-23T00:32:27;26.70;53.60
37232;DHT22;23125;48.156;15.954;2022-07-23T00:34:55;26.70;53.70
37232;DHT22;23125;48.156;15.954;2022-07-23T00:37:23;26.70;53.80
37232;DHT22;23125;48.156;15.954;2022-07-23T00:39:50;26.70;53.70
37232;DHT22;23125;48.156;15.954;2022-07-23T00:42:17;26.70;53.90
37232;DHT22;23125;48.156;15.954;2022-07-23T00:44:45;26.60;53.90
37232;DHT22;23125;48.156;15.954;2022-07-23T00:47:13;26.70;54.00
37232;DHT22;23125;48.156;15.954;2022-07-23T00:49:41;26.70;54.00
37232;DHT22;23125;48.156;15.954;2022-07-23T00:52:09;26.60;53.90
37232;DHT22;23125;48.156;15.954;2022-07-23T00:54:37;26.60;54.00
37232;DHT22;23125;48.156;15.954;2022-07-23T00:57:06;26.60;54.20
37232;DHT22;23125;48.156;15.954;2022-07-23T00:59:33;26.60;54.20
37232;DHT22;23125;48.156;15.954;2022-07-23T01:01:59;26.60;54.80
37232;DHT22;23125;48.156;15.954;2022-07-23T01:04:26;26.60;54.30
37232;DHT22;23125;48.156;15.954;2022-07-23T01:06:58;26.60;54.40
37232;DHT22;23125;48.156;15.954;2022-07-23T01:09:27;26.60;54.40
37232;DHT22;23125;48.156;15.954;2022-07-23T01:12:04;26.60;54.40
37232;DHT22;23125;48.156;15.954;2022-07-23T01:14:33;26.60;54.50
37232;DHT22;23125;48.156;15.954;2022-07-23T01:17:01;26.50;54.30
37232;DHT22;23125;48.156;15.954;2022-07-23T01:19:31;26.50;54.50
37232;DHT22;23125;48.156;15.954;2022-07-23T01:22:02;26.50;54.70
37232;DHT22;23125;48.156;15.954;2022-07-23T01:24:31;26.50;54.80
37232;DHT22;23125;48.156;15.954;2022-07-23T01:26:59;26.50;54.80
37232;DHT22;23125;48.156;15.954;2022-07-23T01:29:28;26.40;54.80
37232;DHT22;23125;48.156;15.954;2022-07-23T01:31:59;26.40;54.90
37232;DHT22;23125;48.156;15.954;2022-07-23T01:34:26;26.40;55.00
37232;DHT22;23125;48.156;15.954;2022-07-23T01:36:55;26.40;55.00
37232;DHT22;23125;48.156;15.954;2022-07-23T01:39:24;26.40;55.10
37232;DHT22;23125;48.156;15.954;2022-07-23T01:41:54;26.40;55.10
37232;DHT22;23125;48.156;15.954;2022-07-23T01:44:22;26.30;55.20
37232;DHT22;23125;48.156;15.954;2022-07-23T01:46:49;26.30;55.30
37232;DHT22;23125;48.156;15.954;2022-07-23T01:49:17;26.30;55.40
37232;DHT22;23125;48.156;15.954;2022-07-23T01:51:46;26.30;55.40
37232;DHT22;23125;48.156;15.954;2022-07-23T01:54:34;26.40;55.50
37232;DHT22;23125;48.156;15.954;2022-07-23T01:57:04;26.30;55.60
37232;DHT22;23125;48.156;15.954;2022-07-23T01:59:34;26.30;55.50
37232;DHT22;23125;48.156;15.954;2022-07-23T02:02:09;26.30;55.60
37232;DHT22;23125;48.156;15.954;2022-07-23T02:04:43;26.30;55.70
37232;DHT22;23125;48.156;15.954;2022-07-23T02:07:10;26.30;55.70
37232;DHT22;23125;48.156;15.954;2022-07-23T02:09:38;26.30;55.60
37232;DHT22;23125;48.156;15.954;2022-07-23T02:12:05;26.30;55.80
37232;DHT22;23125;48.156;15.954;2022-07-23T02:14:33;26.20;56.00
37232;DHT22;23125;48.156;15.954;2022-07-23T02:17:08;26.30;56.30
37232;DHT22;23125;48.156;15.954;2022-07-23T02:19:37;26.20;56.80
37232;DHT22;23125;48.156;15.954;2022-07-23T02:22:03;26.30;57.20
37232;DHT22;23125;48.156;15.954;2022-07-23T02:24:32;26.40;57.40
37232;DHT22;23125;48.156;15.954;2022-07-23T02:27:04;26.40;57.50
37232;DHT22;23125;48.156;15.954;2022-07-23T02:29:36;26.50;57.50
37232;DHT22;23125;48.156;15.954;2022-07-23T02:32:15;26.50;57.50
37232;DHT22;23125;48.156;15.954;2022-07-23T02:34:49;26.50;57.60
37232;DHT22;23125;48.156;15.954;2022-07-23T02:37:17;26.60;57.60
37232;DHT22;23125;48.156;15.954;2022-07-23T02:39:50;26.60;57.60
37232;DHT22;23125;48.156;15.954;2022-07-23T02:42:18;26.60;57.60
37232;DHT22;23125;48.156;15.954;2022-07-23T02:44:50;26.70;57.70
37232;DHT22;23125;48.156;15.954;2022-07-23T02:47:18;26.70;57.70
37232;DHT22;23125;48.156;15.954;2022-07-23T02:49:47;26.70;57.70
37232;DHT22;23125;48.156;15.954;2022-07-23T02:52:19;26.70;57.70
37232;DHT22;23125;48.156;15.954;2022-07-23T02:54:50;26.70;57.70
37232;DHT22;23125;48.156;15.954;2022-07-23T02:57:19;26.70;57.80
37232;DHT22;23125;48.156;15.954;2022-07-23T02:59:58;26.70;57.80
37232;DHT22;23125;48.156;15.954;2022-07-23T03:02:36;26.70;57.90
37232;DHT22;23125;48.156;15.954;2022-07-23T03:05:17;26.70;58.00
37232;DHT22;23125;48.156;15.954;2022-07-23T03:08:04;26.70;58.00
37232;DHT22;23125;48.156;15.954;2022-07-23T03:10:54;26.70;58.00
37232;DHT22;23125;48.156;15.954;2022-07-23T03:13:36;26.70;57.90
37232;DHT22;23125;48.156;15.954;2022-07-23T03:16:18;26.70;58.00
37232;DHT22;23125;48.156;15.954;2022-07-23T03:19:04;26.60;58.00
37232;DHT22;23125;48.156;15.954;2022-07-23T03:21:40;26.60;58.10
37232;DHT22;23125;48.156;15.954;2022-07-23T03:24:13;26.60;58.10
37232;DHT22;23125;48.156;15.954;2022-07-23T03:26:51;26.60;58.10
37232;DHT22;23125;48.156;15.954;2022-07-23T03:29:33;26.60;58.20
37232;DHT22;23125;48.156;15.954;2022-07-23T03:32:21;26.50;58.10
37232;DHT22;23125;48.156;15.954;2022-07-23T03:35:03;26.50;58.10
37232;DHT22;23125;48.156;15.954;2022-07-23T03:37:45;26.50;58.10
37232;DHT22;23125;48.156;15.954;2022-07-23T03:40:24;26.50;58.20
37232;DHT22;23125;48.156;15.954;2022-07-23T03:43:08;26.50;58.30
37232;DHT22;23125;48.156;15.954;2022-07-23T03:45:55;26.50;58.30
37232;DHT22;23125;48.156;15.954;2022-07-23T03:48:25;26.40;58.30
37232;DHT22;23125;48.156;15.954;2022-07-23T03:51:02;26.40;58.20
37232;DHT22;23125;48.156;15.954;2022-07-23T03:53:46;26.40;58.30
37232;DHT22;23125;48.156;15.954;2022-07-23T03:56:21;26.50;58.40
37232;DHT22;23125;48.156;15.954;2022-07-23T03:59:05;26.50;58.50
37232;DHT22;23125;48.156;15.954;2022-07-23T04:01:44;26.40;58.50
37232;DHT22;23125;48.156;15.954;2022-07-23T04:04:19;26.40;58.50
37232;DHT22;23125;48.156;15.954;2022-07-23T04:06:47;26.40;58.50
37232;DHT22;23125;48.156;15.954;2022-07-23T04:09:22;26.40;58.60
37232;DHT22;23125;48.156;15.954;2022-07-23T04:11:51;26.50;58.70
37232;DHT22;23125;48.156;15.954;2022-07-23T04:14:24;26.50;58.70
37232;DHT22;23125;48.156;15.954;2022-07-23T04:16:51;26.50;58.60
37232;DHT22;23125;48.156;15.954;2022-07-23T04:19:32;26.50;58.60
37232;DHT22;23125;48.156;15.954;2022-07-23T04:22:06;26.50;58.50
37232;DHT22;23125;48.156;15.954;2022-07-23T04:24:35;26.50;58.50
37232;DHT22;23125;48.156;15.954;2022-07-23T04:27:05;26.50;58.50
37232;DHT22;23125;48.156;15.954;2022-07-23T04:29:40;26.50;58.70
37232;DHT22;23125;48.156;15.954;2022-07-23T04:32:21;26.50;58.70
37232;DHT22;23125;48.156;15.954;2022-07-23T04:35:07;26.60;58.80
37232;DHT22;23125;48.156;15.954;2022-07-23T04:37:50;26.60;58.80
37232;DHT22;23125;48.156;15.954;2022-07-23T04:40:28;26.60;58.80
37232;DHT22;23125;48.156;15.954;2022-07-23T04:42:59;26.60;58.80
37232;DHT22;23125;48.156;15.954;2022-07-23T04:45:35;26.60;58.80
37232;DHT22;23125;48.156;15.954;2022-07-23T04:48:04;26.60;58.90
37232;DHT22;23125;48.156;15.954;2022-07-23T04:50:31;26.70;59.00
37232;DHT22;23125;48.156;15.954;2022-07-23T04:52:59;26.70;59.10
37232;DHT22;23125;48.156;15.954;2022-07-23T04:55:28;26.80;59.20
37232;DHT22;23125;48.156;15.954;2022-07-23T04:58:00;26.90;60.00
37232;DHT22;23125;48.156;15.954;2022-07-23T05:00:29;27.00;59.50
37232;DHT22;23125;48.156;15.954;2022-07-23T05:03:01;27.10;60.20
37232;DHT22;23125;48.156;15.954;2022-07-23T05:05:28;27.20;59.60
37232;DHT22;23125;48.156;15.954;2022-07-23T05:08:00;27.40;59.70
37232;DHT22;23125;48.156;15.954;2022-07-23T05:10:36;27.60;59.70
37232;DHT22;23125;48.156;15.954;2022-07-23T05:13:06;27.70;59.50
37232;DHT22;23125;48.156;15.954;2022-07-23T05:15:34;27.90;59.60
37232;DHT22;23125;48.156;15.954;2022-07-23T05:18:01;28.00;59.30
37232;DHT22;23125;48.156;15.954;2022-07-23T05:20:29;28.10;59.20
37232;DHT22;23125;48.156;15.954;2022-07-23T05:22:58;28.30;59.10
37232;DHT22;23125;48.156;15.954;2022-07-23T05:25:26;28.40;59.60
37232;DHT22;23125;48.156;15.954;2022-07-23T05:27:53;29.00;61.00
37232;DHT22;23125;48.156;15.954;2022-07-23T05:30:21;29.60;61.20
37232;DHT22;23125;48.156;15.954;2022-07-23T05:32:49;29.90;59.30
37232;DHT22;23125;48.156;15.954;2022-07-23T05:35:16;30.00;57.70
37232;DHT22;23125;48.156;15.954;2022-07-23T05:37:43;30.10;57.00
37232;DHT22;23125;48.156;15.954;2022-07-23T05:40:11;30.20;56.40
37232;DHT22;23125;48.156;15.954;2022-07-23T05:42:39;30.20;55.90
37232;DHT22;23125;48.156;15.954;2022-07-23T05:45:13;30.20;55.70
37232;DHT22;23125;48.156;15.954;2022-07-23T05:47:46;30.20;55.10
37232;DHT22;23125;48.156;15.954;2022-07-23T05:50:15;30.20;54.80
37232;DHT22;23125;48.156;15.954;2022-07-23T05:52:45;30.10;54.70
37232;DHT22;23125;48.156;15.954;2022-07-23T05:55:20;30.10;54.70
37232;DHT22;23125;48.156;15.954;2022-07-23T05:57:52;30.10;54.70
37232;DHT22;23125;48.156;15.954;2022-07-23T06:00:20;30.40;56.60
37232;DHT22;23125;48.156;15.954;2022-07-23T06:02:53;30.60;55.10
37232;DHT22;23125;48.156;15.954;2022-07-23T06:05:30;30.70;54.80
37232;DHT22;23125;48.156;15.954;2022-07-23T06:07:58;30.80;54.30
37232;DHT22;23125;48.156;15.954;2022-07-23T06:10:27;30.90;53.60
37232;DHT22;23125;48.156;15.954;2022-07-23T06:13:16;30.90;53.60
37232;DHT22;23125;48.156;15.954;2022-07-23T06:15:53;31.10;53.30
37232;DHT22;23125;48.156;15.954;2022-07-23T06:18:30;31.50;54.10
37232;DHT22;23125;48.156;15.954;2022-07-23T06:21:15;32.20;54.50
37232;DHT22;23125;48.156;15.954;2022-07-23T06:24:00;33.00;53.30
37232;DHT22;23125;48.156;15.954;2022-07-23T06:26:45;33.80;52.50
37232;DHT22;23125;48.156;15.954;2022-07-23T06:29:13;34.70;51.20
37232;DHT22;23125;48.156;15.954;2022-07-23T06:31:41;35.40;49.50
37232;DHT22;23125;48.156;15.954;2022-07-23T06:34:12;35.80;47.60
37232;DHT22;23125;48.156;15.954;2022-07-23T06:36:45;36.30;46.50
37232;DHT22;23125;48.156;15.954;2022-07-23T06:39:19;36.80;45.90
37232;DHT22;23125;48.156;15.954;2022-07-23T06:41:48;37.40;44.90
37232;DHT22;23125;48.156;15.954;2022-07-23T06:44:16;37.90;43.30
37232;DHT22;23125;48.156;15.954;2022-07-23T06:46:44;38.20;42.00
37232;DHT22;23125;48.156;15.954;2022-07-23T06:49:11;38.60;41.20
37232;DHT22;23125;48.156;15.954;2022-07-23T06:51:43;39.00;40.30
37232;DHT22;23125;48.156;15.954;2022-07-23T06:54:10;39.20;38.30
37232;DHT22;23125;48.156;15.954;2022-07-23T06:56:37;39.20;37.50
37232;DHT22;23125;48.156;15.954;2022-07-23T06:59:04;39.30;36.80
37232;DHT22;23125;48.156;15.954;2022-07-23T07:01:36;39.50;36.80
37232;DHT22;23125;48.156;15.954;2022-07-23T07:04:03;39.90;36.70
37232;DHT22;23125;48.156;15.954;2022-07-23T07:06:34;40.30;35.90
37232;DHT22;23125;48.156;15.954;2022-07-23T07:09:02;40.60;34.90
37232;DHT22;23125;48.156;15.954;2022-07-23T07:11:29;40.90;34.20
37232;DHT22;23125;48.156;15.954;2022-07-23T07:13:55;41.10;33.30
37232;DHT22;23125;48.156;15.954;2022-07-23T07:16:30;41.20;32.70
37232;DHT22;23125;48.156;15.954;2022-07-23T07:18:58;41.40;32.50
37232;DHT22;23125;48.156;15.954;2022-07-23T07:21:30;41.50;31.30
37232;DHT22;23125;48.156;15.954;2022-07-23T07:23:57;41.40;31.00
37232;DHT22;23125;48.156;15.954;2022-07-23T07:26:25;41.30;31.00
37232;DHT22;23125;48.156;15.954;2022-07-23T07:29:00;41.50;31.30
37232;DHT22;23125;48.156;15.954;2022-07-23T07:31:28;41.70;31.10
37232;DHT22;23125;48.156;15.954;2022-07-23T07:33:59;42.00;30.70
37232;DHT22;23125;48.156;15.954;2022-07-23T07:36:30;42.20;30.10
37232;DHT22;23125;48.156;15.954;2022-07-23T07:38:58;42.40;30.30
37232;DHT22;23125;48.156;15.954;2022-07-23T07:41:34;42.70;30.00
37232;DHT22;23125;48.156;15.954;2022-07-23T07:44:10;43.00;29.80
37232;DHT22;23125;48.156;15.954;2022-07-23T07:46:44;43.30;29.70
37232;DHT22;23125;48.156;15.954;2022-07-23T07:49:18;43.80;29.30
37232;DHT22;23125;48.156;15.954;2022-07-23T07:51:59;43.90;28.70
37232;DHT22;23125;48.156;15.954;2022-07-23T07:54:32;44.00;28.30
37232;DHT22;23125;48.156;15.954;2022-07-23T07:56:59;43.90;27.90
37232;DHT22;23125;48.156;15.954;2022-07-23T07:59:31;43.90;27.80
37232;DHT22;23125;48.156;15.954;2022-07-23T08:02:08;43.90;28.00
37232;DHT22;23125;48.156;15.954;2022-07-23T08:04:53;44.00;28.20
37232;DHT22;23125;48.156;15.954;2022-07-23T08:07:30;44.30;28.30
37232;DHT22;23125;48.156;15.954;2022-07-23T08:10:17;44.60;28.00
37232;DHT22;23125;48.156;15.954;2022-07-23T08:12:56;44.90;27.90
37232;DHT22;23125;48.156;15.954;2022-07-23T08:15:36;45.20;27.60
37232;DHT22;23125;48.156;15.954;2022-07-23T08:18:12;45.40;27.20
37232;DHT22;23125;48.156;15.954;2022-07-23T08:20:57;45.60;26.90
37232;DHT22;23125;48.156;15.954;2022-07-23T08:23:41;45.70;26.60
37232;DHT22;23125;48.156;15.954;2022-07-23T08:26:36;45.80;26.40
37232;DHT22;23125;48.156;15.954;2022-07-23T08:29:15;45.90;26.30
37232;DHT22;23125;48.156;15.954;2022-07-23T08:31:54;46.10;26.30
37232;DHT22;23125;48.156;15.954;2022-07-23T08:34:46;46.20;26.30
37232;DHT22;23125;48.156;15.954;2022-07-23T08:37:21;46.40;26.10
37232;DHT22;23125;48.156;15.954;2022-07-23T08:40:08;46.50;25.70
37232;DHT22;23125;48.156;15.954;2022-07-23T08:42:50;46.40;25.60
37232;DHT22;23125;48.156;15.954;2022-07-23T08:45:19;46.40;25.70
37232;DHT22;23125;48.156;15.954;2022-07-23T08:47:51;46.50;25.90
37232;DHT22;23125;48.156;15.954;2022-07-23T08:50:18;46.60;25.60
37232;DHT22;23125;48.156;15.954;2022-07-23T08:53:03;46.60;25.50
37232;DHT22;23125;48.156;15.954;2022-07-23T08:55:40;46.40;25.20
37232;DHT22;23125;48.156;15.954;2022-07-23T08:58:07;46.40;25.20
37232;DHT22;23125;48.156;15.954;2022-07-23T09:00:36;46.40;25.60
37232;DHT22;23125;48.156;15.954;2022-07-23T09:03:04;46.40;25.40
37232;DHT22;23125;48.156;15.954;2022-07-23T09:05:49;46.30;25.40
37232;DHT22;23125;48.156;15.954;2022-07-23T09:08:33;46.30;25.40
37232;DHT22;23125;48.156;15.954;2022-07-23T09:11:04;46.10;25.20
37232;DHT22;23125;48.156;15.954;2022-07-23T09:16:29;45.60;25.40
37232;DHT22;23125;48.156;15.954;2022-07-23T09:19:13;45.50;25.70
37232;DHT22;23125;48.156;15.954;2022-07-23T09:22:23;45.30;26.10
37232;DHT22;23125;48.156;15.954;2022-07-23T09:25:16;45.10;26.10
37232;DHT22;23125;48.156;15.954;2022-07-23T09:27:59;45.10;26.30
37232;DHT22;23125;48.156;15.954;2022-07-23T09:30:43;45.10;26.50
37232;DHT22;23125;48.156;15.954;2022-07-23T09:33:42;45.10;26.60
37232;DHT22;23125;48.156;15.954;2022-07-23T09:36:35;45.10;26.30
37232;DHT22;23125;48.156;15.954;2022-07-23T09:39:17;45.20;26.50
37232;DHT22;23125;48.156;15.954;2022-07-23T09:42:19;45.30;26.50
37232;DHT22;23125;48.156;15.954;2022-07-23T09:44:57;45.30;26.20
37232;DHT22;23125;48.156;15.954;2022-07-23T09:47:48;45.30;26.10
37232;DHT22;23125;48.156;15.954;2022-07-23T09:50:30;45.30;26.00
37232;DHT22;23125;48.156;15.954;2022-07-23T09:53:00;45.30;26.10
37232;DHT22;23125;48.156;15.954;2022-07-23T09:55:32;45.30;26.10
37232;DHT22;23125;48.156;15.954;2022-07-23T09:58:11;45.40;25.90
37232;DHT22;23125;48.156;15.954;2022-07-23T10:00:46;45.40;25.90
37232;DHT22;23125;48.156;15.954;2022-07-23T10:03:17;45.30;25.50
37232;DHT22;23125;48.156;15.954;2022-07-23T10:05:47;45.10;25.40
37232;DHT22;23125;48.156;15.954;2022-07-23T10:08:31;44.90;25.30
37232;DHT22;23125;48.156;15.954;2022-07-23T10:11:08;44.70;25.60
37232;DHT22;23125;48.156;15.954;2022-07-23T10:13:38;44.50;25.70
37232;DHT22;23125;48.156;15.954;2022-07-23T10:16:27;44.30;25.80
37232;DHT22;23125;48.156;15.954;2022-07-23T10:18:55;44.20;25.90
37232;DHT22;23125;48.156;15.954;2022-07-23T10:21:41;44.00;26.00
37232;DHT22;23125;48.156;15.954;2022-07-23T10:24:53;43.80;26.00
37232;DHT22;23125;48.156;15.954;2022-07-23T10:30:34;43.10;26.10
37232;DHT22;23125;48.156;15.954;2022-07-23T10:36:50;42.40;26.30
37232;DHT22;23125;48.156;15.954;2022-07-23T10:39:51;42.00;26.50
37232;DHT22;23125;48.156;15.954;2022-07-23T10:42:47;41.70;26.90
37232;DHT22;23125;48.156;15.954;2022-07-23T10:45:38;41.40;27.10
37232;DHT22;23125;48.156;15.954;2022-07-23T10:48:25;41.20;27.40
37232;DHT22;23125;48.156;15.954;2022-07-23T10:51:22;41.10;27.60
37232;DHT22;23125;48.156;15.954;2022-07-23T10:54:13;40.90;27.70
37232;DHT22;23125;48.156;15.954;2022-07-23T10:57:07;40.70;27.80
37232;DHT22;23125;48.156;15.954;2022-07-23T11:00:12;40.60;28.10
37232;DHT22;23125;48.156;15.954;2022-07-23T11:02:50;40.40;28.30
37232;DHT22;23125;48.156;15.954;2022-07-23T11:05:51;40.40;28.50
37232;DHT22;23125;48.156;15.954;2022-07-23T11:08:36;40.40;28.70
37232;DHT22;23125;48.156;15.954;2022-07-23T11:13:41;40.30;28.80
37232;DHT22;23125;48.156;15.954;2022-07-23T11:16:23;40.20;28.80
37232;DHT22;23125;48.156;15.954;2022-07-23T11:19:10;40.20;29.00
37232;DHT22;23125;48.156;15.954;2022-07-23T11:21:54;40.10;29.00
37232;DHT22;23125;48.156;15.954;2022-07-23T11:24:30;40.00;29.10
37232;DHT22;23125;48.156;15.954;2022-07-23T11:27:05;39.90;29.30
37232;DHT22;23125;48.156;15.954;2022-07-23T11:29:44;39.80;29.20
37232;DHT22;23125;48.156;15.954;2022-07-23T11:32:24;39.70;29.30
37232;DHT22;23125;48.156;15.954;2022-07-23T11:35:02;39.60;29.30
37232;DHT22;23125;48.156;15.954;2022-07-23T11:37:45;39.40;29.30
37232;DHT22;23125;48.156;15.954;2022-07-23T11:40:27;39.30;29.50
37232;DHT22;23125;48.156;15.954;2022-07-23T11:43:14;39.10;29.60
37232;DHT22;23125;48.156;15.954;2022-07-23T11:46:09;39.10;29.80
37232;DHT22;23125;48.156;15.954;2022-07-23T11:49:07;39.00;29.90
37232;DHT22;23125;48.156;15.954;2022-07-23T11:51:35;38.80;29.70
37232;DHT22;23125;48.156;15.954;2022-07-23T11:54:08;38.70;29.60
37232;DHT22;23125;48.156;15.954;2022-07-23T11:56:34;38.60;29.70
37232;DHT22;23125;48.156;15.954;2022-07-23T11:59:01;38.40;29.70
37232;DHT22;23125;48.156;15.954;2022-07-23T12:02:04;38.30;29.90
37232;DHT22;23125;48.156;15.954;2022-07-23T12:04:44;38.20;30.00
37232;DHT22;23125;48.156;15.954;2022-07-23T12:07:34;38.20;30.00
37232;DHT22;23125;48.156;15.954;2022-07-23T12:10:13;38.10;30.00
37232;DHT22;23125;48.156;15.954;2022-07-23T12:12:52;38.10;30.00
37232;DHT22;23125;48.156;15.954;2022-07-23T12:15:34;38.10;29.90
37232;DHT22;23125;48.156;15.954;2022-07-23T12:18:22;38.10;30.00
37232;DHT22;23125;48.156;15.954;2022-07-23T12:21:11;38.00;29.90
37232;DHT22;23125;48.156;15.954;2022-07-23T12:23:49;37.90;29.90
37232;DHT22;23125;48.156;15.954;2022-07-23T12:26:32;37.90;29.80
37232;DHT22;23125;48.156;15.954;2022-07-23T12:29:09;37.80;29.70
37232;DHT22;23125;48.156;15.954;2022-07-23T12:31:43;37.70;29.70
37232;DHT22;23125;48.156;15.954;2022-07-23T12:34:21;37.70;29.90
37232;DHT22;23125;48.156;15.954;2022-07-23T12:36:49;37.70;30.10
37232;DHT22;23125;48.156;15.954;2022-07-23T12:39:36;37.70;30.10
37232;DHT22;23125;48.156;15.954;2022-07-23T12:42:18;37.70;30.00
37232;DHT22;23125;48.156;15.954;2022-07-23T12:45:09;37.80;30.30
37232;DHT22;23125;48.156;15.954;2022-07-23T12:48:26;37.80;30.20
37232;DHT22;23125;48.156;15.954;2022-07-23T12:51:08;37.80;30.00
37232;DHT22;23125;48.156;15.954;2022-07-23T12:53:50;37.80;29.70
37232;DHT22;23125;48.156;15.954;2022-07-23T12:56:44;37.70;29.50
37232;DHT22;23125;48.156;15.954;2022-07-23T12:59:40;37.70;29.50
37232;DHT22;23125;48.156;15.954;2022-07-23T13:02:53;37.60;29.50
37232;DHT22;23125;48.156;15.954;2022-07-23T13:05:35;37.50;29.50
37232;DHT22;23125;48.156;15.954;2022-07-23T13:08:27;37.50;29.50
37232;DHT22;23125;48.156;15.954;2022-07-23T13:11:21;37.40;29.60
37232;DHT22;23125;48.156;15.954;2022-07-23T13:14:20;37.40;29.60
37232;DHT22;23125;48.156;15.954;2022-07-23T13:17:10;37.40;29.60
37232;DHT22;23125;48.156;15.954;2022-07-23T13:19:51;37.40;29.70
37232;DHT22;23125;48.156;15.954;2022-07-23T13:22:38;37.30;29.70
37232;DHT22;23125;48.156;15.954;2022-07-23T13:25:22;37.30;29.80
37232;DHT22;23125;48.156;15.954;2022-07-23T13:27:55;37.30;29.90
37232;DHT22;23125;48.156;15.954;2022-07-23T13:30:46;37.30;29.90
37232;DHT22;23125;48.156;15.954;2022-07-23T13:33:38;37.20;29.80
37232;DHT22;23125;48.156;15.954;2022-07-23T13:36:22;37.10;29.70
37232;DHT22;23125;48.156;15.954;2022-07-23T13:39:06;37.10;29.90
37232;DHT22;23125;48.156;15.954;2022-07-23T13:41:34;37.00;29.80
37232;DHT22;23125;48.156;15.954;2022-07-23T13:44:13;36.90;30.00
37232;DHT22;23125;48.156;15.954;2022-07-23T13:46:44;36.90;30.00
37232;DHT22;23125;48.156;15.954;2022-07-23T13:49:17;36.80;30.10
37232;DHT22;23125;48.156;15.954;2022-07-23T13:51:50;36.70;30.30
37232;DHT22;23125;48.156;15.954;2022-07-23T13:54:25;36.70;30.10
37232;DHT22;23125;48.156;15.954;2022-07-23T13:56:59;36.60;30.40
37232;DHT22;23125;48.156;15.954;2022-07-23T13:59:29;36.60;30.70
37232;DHT22;23125;48.156;15.954;2022-07-23T14:02:03;36.50;30.70
37232;DHT22;23125;48.156;15.954;2022-07-23T14:04:43;36.50;31.00
37232;DHT22;23125;48.156;15.954;2022-07-23T14:07:11;36.50;30.90
37232;DHT22;23125;48.156;15.954;2022-07-23T14:09:54;36.50;31.10
37232;DHT22;23125;48.156;15.954;2022-07-23T14:12:29;36.40;31.20
37232;DHT22;23125;48.156;15.954;2022-07-23T14:15:03;36.50;31.50
37232;DHT22;23125;48.156;15.954;2022-07-23T14:17:40;36.50;31.50
37232;DHT22;23125;48.156;15.954;2022-07-23T14:20:13;36.50;31.80
37232;DHT22;23125;48.156;15.954;2022-07-23T14:22:40;36.50;31.70
37232;DHT22;23125;48.156;15.954;2022-07-23T14:27:49;36.50;31.70
37232;DHT22;23125;48.156;15.954;2022-07-23T14:30:19;36.50;31.70
37232;DHT22;23125;48.156;15.954;2022-07-23T14:32:50;36.40;31.60
37232;DHT22;23125;48.156;15.954;2022-07-23T14:35:17;36.40;31.60
37232;DHT22;23125;48.156;15.954;2022-07-23T14:37:57;36.30;31.50
37232;DHT22;23125;48.156;15.954;2022-07-23T14:40:30;36.30;31.60
37232;DHT22;23125;48.156;15.954;2022-07-23T14:42:57;36.20;31.50
37232;DHT22;23125;48.156;15.954;2022-07-23T14:45:24;36.20;31.40
37232;DHT22;23125;48.156;15.954;2022-07-23T14:47:51;36.10;31.30
37232;DHT22;23125;48.156;15.954;2022-07-23T14:50:17;36.00;31.40
37232;DHT22;23125;48.156;15.954;2022-07-23T14:52:45;35.90;31.40
37232;DHT22;23125;48.156;15.954;2022-07-23T14:55:12;35.80;31.30
37232;DHT22;23125;48.156;15.954;2022-07-23T14:57:46;35.70;31.20
37232;DHT22;23125;48.156;15.954;2022-07-23T15:00:20;35.60;31.60
37232;DHT22;23125;48.156;15.954;2022-07-23T15:02:52;35.50;31.50
37232;DHT22;23125;48.156;15.954;2022-07-23T15:05:23;35.50;31.70
37232;DHT22;23125;48.156;15.954;2022-07-23T15:07:56;35.40;32.10
37232;DHT22;23125;48.156;15.954;2022-07-23T15:10:24;35.30;32.10
37232;DHT22;23125;48.156;15.954;2022-07-23T15:12:55;35.30;32.30
37232;DHT22;23125;48.156;15.954;2022-07-23T15:15:22;35.20;32.50
37232;DHT22;23125;48.156;15.954;2022-07-23T15:17:58;35.20;32.60
37232;DHT22;23125;48.156;15.954;2022-07-23T15:20:34;35.20;32.80
37232;DHT22;23125;48.156;15.954;2022-07-23T15:23:09;35.10;32.90
37232;DHT22;23125;48.156;15.954;2022-07-23T15:25:43;35.00;33.10
37232;DHT22;23125;48.156;15.954;2022-07-23T15:28:19;35.10;33.30
37232;DHT22;23125;48.156;15.954;2022-07-23T15:30:47;35.00;33.40
37232;DHT22;23125;48.156;15.954;2022-07-23T15:33:24;35.00;33.40
37232;DHT22;23125;48.156;15.954;2022-07-23T15:36:03;34.90;33.60
37232;DHT22;23125;48.156;15.954;2022-07-23T15:38:30;34.90;33.50
37232;DHT22;23125;48.156;15.954;2022-07-23T15:40:57;34.90;33.50
37232;DHT22;23125;48.156;15.954;2022-07-23T15:43:25;34.80;33.60
37232;DHT22;23125;48.156;15.954;2022-07-23T15:45:53;34.80;33.80
37232;DHT22;23125;48.156;15.954;2022-07-23T15:48:21;34.80;33.80
37232;DHT22;23125;48.156;15.954;2022-07-23T15:50:50;34.80;33.60
37232;DHT22;23125;48.156;15.954;2022-07-23T15:53:16;34.70;33.50
37232;DHT22;23125;48.156;15.954;2022-07-23T15:55:43;34.60;33.50
37232;DHT22;23125;48.156;15.954;2022-07-23T15:58:11;34.60;33.50
37232;DHT22;23125;48.156;15.954;2022-07-23T16:00:39;34.60;33.70
37232;DHT22;23125;48.156;15.954;2022-07-23T16:03:11;34.50;33.70
37232;DHT22;23125;48.156;15.954;2022-07-23T16:05:37;34.50;33.70
37232;DHT22;23125;48.156;15.954;2022-07-23T16:08:05;34.40;33.70
37232;DHT22;23125;48.156;15.954;2022-07-23T16:10:33;34.50;34.10
37232;DHT22;23125;48.156;15.954;2022-07-23T16:13:01;34.40;34.00
37232;DHT22;23125;48.156;15.954;2022-07-23T16:15:29;34.40;34.90
37232;DHT22;23125;48.156;15.954;2022-07-23T16:17:57;34.40;34.30
37232;DHT22;23125;48.156;15.954;2022-07-23T16:20:25;34.40;34.30
37232;DHT22;23125;48.156;15.954;2022-07-23T16:22:58;34.30;34.50